createdAt,value
2022-11-27T00:01:36.226Z,100551.91
2022-11-27T00:04:04.508Z,100559.75
2022-11-27T00:06:34.985Z,100546.03
2022-11-27T00:09:05.619Z,100551.16
2022-11-27T00:11:34.390Z,100554.28
2022-11-27T00:14:03.205Z,100555.47
2022-11-27T00:16:31.575Z,100560.50
2022-11-27T00:19:00.120Z,100553.41
2022-11-27T00:21:30.525Z,100557.94
2022-11-27T00:24:02.067Z,100549.41
2022-11-27T00:26:37.243Z,100546.84
2022-11-27T00:29:06.624Z,100552.69
2022-11-27T00:31:37.345Z,100553.44
2022-11-27T00:34:09.105Z,100549.69
2022-11-27T00:36:38.011Z,100564.22
2022-11-27T00:39:10.619Z,100558.38
2022-11-27T00:41:39.032Z,100561.94
2022-11-27T00:44:07.433Z,100554.81
2022-11-27T00:46:36.657Z,100542.84
2022-11-27T00:49:07.059Z,100555.28
2022-11-27T00:51:35.498Z,100548.13
2022-11-27T00:54:03.780Z,100556.31
2022-11-27T00:56:35.925Z,100543.03
2022-11-27T00:59:05.709Z,100545.97
2022-11-27T01:01:35.481Z,100528.47
2022-11-27T01:04:05.252Z,100533.16
2022-11-27T01:06:33.441Z,100525.13
2022-11-27T01:09:02.250Z,100523.59
2022-11-27T01:11:32.750Z,100508.06
2022-11-27T01:14:04.407Z,100523.97
2022-11-27T01:16:34.499Z,100524.84
2022-11-27T01:19:04.361Z,100520.22
2022-11-27T01:21:34.381Z,100515.19
2022-11-27T01:24:03.529Z,100528.75
2022-11-27T01:26:32.241Z,100521.22
2022-11-27T01:29:02.292Z,100517.94
2022-11-27T01:31:33.460Z,100514.72
2022-11-27T01:34:03.219Z,100513.28
2022-11-27T01:36:32.481Z,100521.09
2022-11-27T01:39:01.014Z,100517.28
2022-11-27T01:41:31.188Z,100521.75
2022-11-27T01:44:01.360Z,100525.13
2022-11-27T01:46:36.244Z,100526.38
2022-11-27T01:49:23.421Z,100510.22
2022-11-27T01:51:56.155Z,100507.94
2022-11-27T01:54:27.247Z,100511.56
2022-11-27T01:56:59.970Z,100514.13
2022-11-27T01:59:28.273Z,100520.97
2022-11-27T02:01:58.019Z,100512.56
2022-11-27T02:04:26.331Z,100517.69
2022-11-27T02:06:57.335Z,100518.69
2022-11-27T02:09:25.771Z,100522.88
2022-11-27T02:12:00.993Z,100521.16
2022-11-27T02:14:37.346Z,100520.28
2022-11-27T02:17:14.556Z,100510.31
2022-11-27T02:20:03.921Z,100507.97
2022-11-27T02:22:48.263Z,100515.97
2022-11-27T02:25:29.922Z,100520.72
2022-11-27T02:28:22.738Z,100515.06
2022-11-27T02:30:58.094Z,100523.50
2022-11-27T02:33:27.122Z,100508.13
2022-11-27T02:36:01.036Z,100506.38
2022-11-27T02:38:33.112Z,100499.13
2022-11-27T02:41:06.578Z,100492.06
2022-11-27T02:43:38.313Z,100476.72
2022-11-27T02:46:10.853Z,100479.75
2022-11-27T02:48:44.638Z,100470.31
2022-11-27T02:51:16.187Z,100471.88
2022-11-27T02:53:56.075Z,100459.63
2022-11-27T02:56:27.668Z,100468.25
2022-11-27T02:59:00.813Z,100459.34
2022-11-27T03:01:34.814Z,100465.56
2022-11-27T03:04:07.429Z,100470.72
2022-11-27T03:06:41.596Z,100472.09
2022-11-27T03:09:14.964Z,100470.09
2022-11-27T03:11:43.243Z,100453.38
2022-11-27T03:14:13.182Z,100449.31
2022-11-27T03:16:50.495Z,100452.06
2022-11-27T03:19:23.601Z,100457.06
2022-11-27T03:21:55.230Z,100454.88
2022-11-27T03:24:24.094Z,100456.00
2022-11-27T03:26:52.583Z,100459.56
2022-11-27T03:29:24.814Z,100455.13
2022-11-27T03:31:54.450Z,100454.66
2022-11-27T03:34:22.819Z,100461.41
2022-11-27T03:36:51.210Z,100454.84
2022-11-27T03:39:22.351Z,100463.75
2022-11-27T03:42:02.415Z,100447.63
2022-11-27T03:44:37.027Z,100450.59
2022-11-27T03:47:13.584Z,100443.09
2022-11-27T03:49:56.657Z,100446.63
2022-11-27T03:52:32.507Z,100459.94
2022-11-27T03:55:09.279Z,100461.81
2022-11-27T03:57:45.374Z,100460.47
2022-11-27T04:00:15.272Z,100458.72
2022-11-27T04:02:47.322Z,100444.69
2022-11-27T04:05:16.035Z,100448.25
2022-11-27T04:07:44.235Z,100446.19
2022-11-27T04:10:13.858Z,100429.19
2022-11-27T04:12:41.838Z,100429.06
2022-11-27T04:15:10.703Z,100434.66
2022-11-27T04:17:38.716Z,100432.94
2022-11-27T04:20:10.151Z,100438.88
2022-11-27T04:22:38.127Z,100426.94
2022-11-27T04:25:06.820Z,100425.44
2022-11-27T04:27:34.766Z,100409.84
2022-11-27T04:30:02.710Z,100433.91
2022-11-27T04:32:30.821Z,100431.19
2022-11-27T04:34:58.828Z,100427.19
2022-11-27T04:37:28.443Z,100421.41
2022-11-27T04:39:56.572Z,100415.19
2022-11-27T04:42:24.589Z,100415.31
2022-11-27T04:44:52.846Z,100401.34
2022-11-27T04:47:20.889Z,100403.88
2022-11-27T04:49:49.262Z,100413.97
2022-11-27T04:52:17.264Z,100430.09
2022-11-27T04:54:46.599Z,100423.00
2022-11-27T04:57:15.091Z,100419.13
2022-11-27T04:59:43.271Z,100425.16
2022-11-27T05:02:11.321Z,100410.09
2022-11-27T05:04:39.529Z,100419.47
2022-11-27T05:07:08.279Z,100418.69
2022-11-27T05:09:36.267Z,100424.63
2022-11-27T05:12:06.260Z,100424.41
2022-11-27T05:14:34.636Z,100422.69
2022-11-27T05:17:03.022Z,100423.81
2022-11-27T05:19:31.905Z,100413.56
2022-11-27T05:22:00.011Z,100410.41
2022-11-27T05:24:30.017Z,100417.13
2022-11-27T05:26:58.327Z,100408.09
2022-11-27T05:29:28.048Z,100414.50
2022-11-27T05:31:56.467Z,100409.59
2022-11-27T05:34:26.722Z,100405.53
2022-11-27T05:36:55.048Z,100407.75
2022-11-27T05:39:23.814Z,100405.41
2022-11-27T05:41:51.829Z,100401.28
2022-11-27T05:44:19.856Z,100414.28
2022-11-27T05:46:49.210Z,100405.53
2022-11-27T05:49:17.464Z,100401.41
2022-11-27T05:51:50.999Z,100412.03
2022-11-27T05:54:19.885Z,100393.13
2022-11-27T05:56:47.840Z,100396.72
2022-11-27T05:59:16.222Z,100399.81
2022-11-27T06:01:44.528Z,100387.03
2022-11-27T06:08:16.890Z,100393.06
2022-11-27T06:10:44.884Z,100392.06
2022-11-27T06:13:12.927Z,100392.50
2022-11-27T06:15:41.016Z,100402.84
2022-11-27T06:18:09.388Z,100397.91
2022-11-27T06:20:43.386Z,100393.25
2022-11-27T06:23:15.986Z,100388.03
2022-11-27T06:25:44.080Z,100385.72
2022-11-27T06:28:12.254Z,100396.81
2022-11-27T06:30:40.359Z,100384.59
2022-11-27T06:33:08.459Z,100397.81
2022-11-27T06:35:39.730Z,100400.50
2022-11-27T06:38:07.883Z,100391.78
2022-11-27T06:40:37.528Z,100382.13
2022-11-27T06:43:05.853Z,100380.38
2022-11-27T06:45:34.181Z,100381.84
2022-11-27T06:48:02.555Z,100359.69
2022-11-27T06:50:30.643Z,100369.81
2022-11-27T06:52:58.948Z,100377.06
2022-11-27T06:55:28.806Z,100371.25
2022-11-27T06:57:58.463Z,100355.94
2022-11-27T07:00:26.612Z,100338.09
2022-11-27T07:02:55.867Z,100339.28
2022-11-27T07:05:25.631Z,100314.31
2022-11-27T07:07:54.093Z,100330.38
2022-11-27T07:10:22.689Z,100330.31
2022-11-27T07:12:51.114Z,100331.97
2022-11-27T07:15:20.737Z,100329.50
2022-11-27T07:17:49.046Z,100325.38
2022-11-27T07:20:20.767Z,100321.47
2022-11-27T07:22:49.253Z,100308.34
2022-11-27T07:25:17.762Z,100319.75
2022-11-27T07:31:20.348Z,100299.16
2022-11-27T07:33:49.892Z,100315.09
2022-11-27T07:40:07.590Z,100315.03
2022-11-27T07:43:21.752Z,100316.41
2022-11-27T07:55:35.494Z,100314.88
2022-11-27T07:58:06.942Z,100327.94
2022-11-27T08:00:35.760Z,100322.88
2022-11-27T08:03:03.954Z,100309.38
2022-11-27T08:05:35.128Z,100316.91
2022-11-27T08:08:04.458Z,100319.06
2022-11-27T08:10:36.975Z,100320.69
2022-11-27T08:13:05.478Z,100311.41
2022-11-27T08:15:34.448Z,100310.47
2022-11-27T08:18:02.605Z,100298.31
2022-11-27T08:20:31.284Z,100307.47
2022-11-27T08:23:02.977Z,100307.16
2022-11-27T08:25:33.634Z,100320.88
2022-11-27T08:28:02.037Z,100324.94
2022-11-27T08:30:30.434Z,100328.25
2022-11-27T08:32:58.742Z,100345.16
2022-11-27T08:35:27.063Z,100342.16
2022-11-27T08:37:55.384Z,100342.69
2022-11-27T08:40:23.549Z,100344.19
2022-11-27T08:42:53.123Z,100332.97
2022-11-27T08:45:21.398Z,100321.28
2022-11-27T08:47:49.679Z,100332.59
2022-11-27T08:50:18.068Z,100341.00
2022-11-27T08:52:46.205Z,100330.13
2022-11-27T08:55:14.525Z,100338.84
2022-11-27T08:57:42.625Z,100333.59
2022-11-27T09:00:13.720Z,100347.72
2022-11-27T09:02:41.875Z,100341.44
2022-11-27T09:05:10.509Z,100349.84
2022-11-27T09:07:38.703Z,100336.38
2022-11-27T09:10:07.927Z,100340.00
2022-11-27T09:12:40.521Z,100343.16
2022-11-27T09:15:13.475Z,100355.63
2022-11-27T09:17:41.588Z,100348.59
2022-11-27T09:20:10.489Z,100357.16
2022-11-27T09:22:38.815Z,100356.09
2022-11-27T09:25:07.513Z,100369.47
2022-11-27T09:27:39.172Z,100359.06
2022-11-27T09:30:10.079Z,100351.66
2022-11-27T09:32:40.275Z,100365.50
2022-11-27T09:35:09.237Z,100327.47
2022-11-27T09:37:37.741Z,100332.50
2022-11-27T09:40:07.405Z,100334.00
2022-11-27T09:42:43.849Z,100351.66
2022-11-27T09:45:17.490Z,100358.09
2022-11-27T09:47:52.711Z,100365.69
2022-11-27T09:50:24.967Z,100371.94
2022-11-27T09:52:56.432Z,100368.84
2022-11-27T09:55:27.429Z,100387.03
2022-11-27T09:58:00.715Z,100398.31
2022-11-27T10:00:29.249Z,100392.94
2022-11-27T10:02:58.845Z,100402.44
2022-11-27T10:05:35.151Z,100395.28
2022-11-27T10:08:24.450Z,100397.72
2022-11-27T10:11:04.012Z,100393.19
2022-11-27T10:13:58.326Z,100402.47
2022-11-27T10:16:42.853Z,100411.47
2022-11-27T10:19:28.454Z,100403.88
2022-11-27T10:22:01.108Z,100415.31
2022-11-27T10:24:37.148Z,100405.59
2022-11-27T10:27:15.679Z,100407.66
2022-11-27T10:29:50.280Z,100401.25
2022-11-27T10:32:53.678Z,100399.53
2022-11-27T10:35:17.347Z,100369.31
2022-11-27T10:37:50.158Z,100367.59
2022-11-27T10:40:24.818Z,100351.06
2022-11-27T10:43:01.912Z,100349.66
2022-11-27T10:45:40.373Z,100319.16
2022-11-27T10:48:09.007Z,100308.59
2022-11-27T10:50:38.573Z,100289.94
2022-11-27T10:53:09.824Z,100286.84
2022-11-27T10:55:55.660Z,100250.59
2022-11-27T10:58:29.568Z,100234.59
2022-11-27T11:01:06.906Z,100208.66
2022-11-27T11:03:36.095Z,100200.22
2022-11-27T11:06:23.954Z,100193.97
2022-11-27T11:09:04.000Z,100193.34
2022-11-27T11:11:32.455Z,100180.97
2022-11-27T11:14:16.160Z,100138.16
2022-11-27T11:16:45.741Z,100126.84
2022-11-27T11:19:24.814Z,100114.06
2022-11-27T11:21:54.591Z,100128.72
2022-11-27T11:24:28.447Z,100128.66
2022-11-27T11:27:00.252Z,100109.94
2022-11-27T11:29:32.739Z,100074.91
2022-11-27T11:32:09.540Z,100053.31
2022-11-27T11:34:44.221Z,100064.72
2022-11-27T11:37:28.947Z,100082.19
2022-11-27T11:39:59.667Z,100078.28
2022-11-27T11:42:29.604Z,100097.16
2022-11-27T11:45:04.779Z,100119.94
2022-11-27T11:47:33.338Z,100146.44
2022-11-27T11:50:04.908Z,100133.09
2022-11-27T11:52:50.054Z,100102.50
2022-11-27T11:55:21.738Z,100074.06
2022-11-27T11:58:21.515Z,100101.50
2022-11-27T12:01:19.296Z,100098.47
2022-11-27T12:03:53.652Z,100073.75
2022-11-27T12:06:38.617Z,100114.09
2022-11-27T12:09:27.510Z,100101.13
2022-11-27T12:12:02.421Z,100129.00
2022-11-27T12:14:42.506Z,100127.44
2022-11-27T12:17:25.804Z,100119.78
2022-11-27T12:20:08.006Z,100115.53
2022-11-27T12:22:53.762Z,100160.06
2022-11-27T12:25:33.631Z,100191.06
2022-11-27T12:28:15.928Z,100212.19
2022-11-27T12:30:53.129Z,100241.69
2022-11-27T12:33:37.269Z,100271.00
2022-11-27T12:36:17.109Z,100271.88
2022-11-27T12:39:00.128Z,100304.69
2022-11-27T12:41:46.033Z,100307.34
2022-11-27T12:44:23.606Z,100279.09
2022-11-27T12:46:59.995Z,100284.16
2022-11-27T12:49:35.557Z,100308.69
2022-11-27T12:52:12.763Z,100307.06
2022-11-27T12:54:47.745Z,100316.41
2022-11-27T12:57:28.097Z,100316.78
2022-11-27T13:00:02.037Z,100334.81
2022-11-27T13:02:36.316Z,100342.94
2022-11-27T13:05:08.803Z,100341.88
2022-11-27T13:07:44.824Z,100340.63
2022-11-27T13:10:21.949Z,100316.47
2022-11-27T13:13:01.055Z,100331.59
2022-11-27T13:15:34.770Z,100350.81
2022-11-27T13:18:16.588Z,100343.41
2022-11-27T13:20:51.997Z,100371.97
2022-11-27T13:23:21.401Z,100382.94
2022-11-27T13:25:54.184Z,100400.59
2022-11-27T13:28:35.031Z,100413.59
2022-11-27T13:31:05.299Z,100408.97
2022-11-27T13:33:39.092Z,100411.00
2022-11-27T13:36:09.383Z,100443.22
2022-11-27T13:38:42.093Z,100462.06
2022-11-27T13:41:21.024Z,100456.16
2022-11-27T13:43:52.779Z,100460.50
2022-11-27T13:46:25.206Z,100445.78
2022-11-27T13:48:57.647Z,100445.91
2022-11-27T13:51:29.307Z,100456.47
2022-11-27T13:54:09.226Z,100458.53
2022-11-27T13:56:37.941Z,100434.44
2022-11-27T13:59:22.968Z,100429.47
2022-11-27T14:01:59.235Z,100424.94
2022-11-27T14:04:28.546Z,100381.38
2022-11-27T14:07:03.182Z,100398.47
2022-11-27T14:09:37.969Z,100392.41
2022-11-27T14:12:17.537Z,100361.38
2022-11-27T14:15:00.168Z,100328.66
2022-11-27T14:17:36.145Z,100267.53
2022-11-27T14:20:20.163Z,100224.75
2022-11-27T14:25:38.897Z,100198.16
2022-11-27T14:28:15.982Z,100164.06
2022-11-27T14:30:49.198Z,100153.41
2022-11-27T14:33:20.633Z,100143.69
2022-11-27T14:35:53.928Z,100127.38
2022-11-27T14:38:22.764Z,100112.84
2022-11-27T14:40:53.439Z,100117.66
2022-11-27T14:43:29.245Z,100102.00
2022-11-27T14:46:01.901Z,100093.34
2022-11-27T14:48:44.802Z,100070.97
2022-11-27T14:51:18.185Z,100032.28
2022-11-27T14:53:47.977Z,100030.25
2022-11-27T14:56:17.248Z,100034.41
2022-11-27T14:58:51.322Z,100003.66
2022-11-27T15:01:27.536Z,99999.50
2022-11-27T15:04:00.095Z,99979.59
2022-11-27T15:06:32.607Z,99992.94
2022-11-27T15:09:29.649Z,100002.13
2022-11-27T15:11:56.889Z,100030.84
2022-11-27T15:14:26.926Z,100021.41
2022-11-27T15:21:58.032Z,100041.22
2022-11-27T15:25:20.405Z,100047.06
2022-11-27T15:27:55.978Z,100078.56
2022-11-27T15:30:24.715Z,100068.56
2022-11-27T15:32:56.412Z,100049.22
2022-11-27T15:35:28.819Z,100038.75
2022-11-27T15:38:04.385Z,100037.19
2022-11-27T15:40:36.109Z,100054.50
2022-11-27T15:43:07.654Z,100073.31
2022-11-27T15:45:37.573Z,100062.44
2022-11-27T15:48:15.190Z,100058.53
2022-11-27T15:50:48.317Z,100082.91
2022-11-27T15:53:20.166Z,100077.91
2022-11-27T15:55:48.414Z,100088.28
2022-11-27T15:58:17.227Z,100097.03
2022-11-27T16:00:45.423Z,100102.31
2022-11-27T16:03:15.672Z,100109.63
2022-11-27T16:05:43.939Z,100118.06
2022-11-27T16:08:12.324Z,100146.88
2022-11-27T16:10:44.334Z,100169.94
2022-11-27T16:13:12.585Z,100165.66
2022-11-27T16:15:40.851Z,100139.00
2022-11-27T16:18:08.899Z,100119.28
2022-11-27T16:20:38.488Z,100101.44
2022-11-27T16:23:06.560Z,100091.22
2022-11-27T16:25:34.794Z,100085.00
2022-11-27T16:28:03.495Z,100072.53
2022-11-27T16:30:31.704Z,100083.97
2022-11-27T16:32:59.853Z,100079.84
2022-11-27T16:35:28.156Z,100068.09
2022-11-27T16:37:57.860Z,100061.84
2022-11-27T16:40:27.386Z,100055.59
2022-11-27T16:42:55.986Z,100039.31
2022-11-27T16:45:24.575Z,100047.09
2022-11-27T16:47:54.788Z,100009.53
2022-11-27T16:51:16.631Z,99992.09
2022-11-27T16:53:50.177Z,99983.34
2022-11-27T16:56:23.858Z,99964.03
2022-11-27T16:59:07.019Z,99956.38
2022-11-27T17:01:36.457Z,99951.09
2022-11-27T17:07:01.384Z,99922.22
2022-11-27T17:09:31.409Z,99915.22
2022-11-27T17:11:59.705Z,99925.09
2022-11-27T17:14:53.453Z,99936.78
2022-11-27T17:17:35.516Z,99939.06
2022-11-27T17:20:09.746Z,99947.91
2022-11-27T17:22:38.703Z,99942.94
2022-11-27T17:25:11.214Z,99915.22
2022-11-27T17:27:39.873Z,99894.19
2022-11-27T17:30:10.557Z,99888.53
2022-11-27T17:32:40.007Z,99879.03
2022-11-27T17:35:08.733Z,99844.72
2022-11-27T17:37:37.254Z,99863.09
2022-11-27T17:40:06.175Z,99838.94
2022-11-27T17:42:36.025Z,99811.13
2022-11-27T17:45:04.458Z,99812.06
2022-11-27T17:47:34.168Z,99809.94
2022-11-27T17:50:02.874Z,99816.94
2022-11-27T17:52:32.159Z,99807.22
2022-11-27T17:55:00.289Z,99841.31
2022-11-27T17:57:28.757Z,99828.94
2022-11-27T17:59:59.264Z,99828.09
2022-11-27T18:02:27.937Z,99827.41
2022-11-27T18:04:56.157Z,99844.31
2022-11-27T18:07:25.874Z,99855.81
2022-11-27T18:09:54.485Z,99864.94
2022-11-27T18:12:22.640Z,99858.31
2022-11-27T18:14:55.422Z,99836.75
2022-11-27T18:17:29.358Z,99825.34
2022-11-27T18:19:59.190Z,99819.97
2022-11-27T18:22:27.644Z,99812.06
2022-11-27T18:24:57.645Z,99808.38
2022-11-27T18:27:25.963Z,99817.31
2022-11-27T18:29:54.459Z,99803.25
2022-11-27T18:32:23.128Z,99786.06
2022-11-27T18:34:56.481Z,99813.81
2022-11-27T18:37:45.923Z,99823.94
2022-11-27T18:40:14.820Z,99829.91
2022-11-27T18:42:42.950Z,99861.19
2022-11-27T18:45:32.923Z,99856.78
2022-11-27T18:48:01.720Z,99877.88
2022-11-27T18:50:31.433Z,99883.06
2022-11-27T18:52:59.819Z,99878.06
2022-11-27T18:55:28.736Z,99880.84
2022-11-27T18:57:57.167Z,99896.59
2022-11-27T19:00:26.036Z,99903.00
2022-11-27T19:02:54.650Z,99914.44
2022-11-27T19:05:23.440Z,99920.00
2022-11-27T19:07:53.153Z,99927.50
2022-11-27T19:10:21.520Z,99922.22
2022-11-27T19:12:59.923Z,99907.25
2022-11-27T19:15:28.439Z,99898.72
2022-11-27T19:17:56.720Z,99875.22
2022-11-27T19:20:24.836Z,99861.59
2022-11-27T19:22:54.496Z,99851.63
2022-11-27T19:25:22.945Z,99846.56
2022-11-27T19:27:53.618Z,99831.03
2022-11-27T19:30:22.007Z,99818.00
2022-11-27T19:32:50.158Z,99809.47
2022-11-27T19:35:24.459Z,99803.13
2022-11-27T19:37:55.504Z,99797.31
2022-11-27T19:40:24.548Z,99791.47
2022-11-27T19:42:57.961Z,99785.66
2022-11-27T19:45:28.966Z,99799.47
2022-11-27T19:47:57.232Z,99814.25
2022-11-27T19:53:23.914Z,99820.50
2022-11-27T19:55:55.095Z,99808.88
2022-11-27T19:58:34.022Z,99797.69
2022-11-27T20:01:07.276Z,99820.16
2022-11-27T20:03:35.613Z,99827.06
2022-11-27T20:06:05.628Z,99822.50
2022-11-27T20:08:35.572Z,99833.53
2022-11-27T20:11:05.747Z,99814.78
2022-11-27T20:13:34.495Z,99833.41
2022-11-27T20:16:02.862Z,99851.75
2022-11-27T20:18:31.050Z,99840.44
2022-11-27T20:21:06.017Z,99819.34
2022-11-27T20:23:35.654Z,99814.31
2022-11-27T20:26:05.685Z,99829.16
2022-11-27T20:28:34.109Z,99843.22
2022-11-27T20:31:03.965Z,99839.63
2022-11-27T20:33:33.534Z,99858.84
2022-11-27T20:36:02.198Z,99867.97
2022-11-27T20:38:30.354Z,99876.38
2022-11-27T20:41:00.587Z,99871.78
2022-11-27T20:43:29.037Z,99874.97
2022-11-27T20:45:57.262Z,99864.59
2022-11-27T20:48:25.467Z,99861.94
2022-11-27T20:50:53.816Z,99852.97
2022-11-27T20:53:22.190Z,99839.28
2022-11-27T20:55:50.643Z,99834.28
2022-11-27T20:58:21.513Z,99821.44
2022-11-27T21:00:50.842Z,99829.47
2022-11-27T21:03:19.562Z,99833.97
2022-11-27T21:06:07.030Z,99849.06
2022-11-27T21:08:38.182Z,99850.28
2022-11-27T21:11:13.949Z,99874.47
2022-11-27T21:13:44.206Z,99860.47
2022-11-27T21:16:14.265Z,99877.06
2022-11-27T21:18:45.216Z,99856.16
2022-11-27T21:21:15.253Z,99844.75
2022-11-27T21:23:45.646Z,99834.53
2022-11-27T21:26:16.215Z,99837.22
2022-11-27T21:28:46.585Z,99849.06
2022-11-27T21:31:21.780Z,99836.28
2022-11-27T21:33:56.760Z,99816.44
2022-11-27T21:36:29.450Z,99799.63
2022-11-27T21:39:00.736Z,99776.78
2022-11-27T21:41:33.791Z,99741.00
2022-11-27T21:44:04.511Z,99698.94
2022-11-27T21:46:33.902Z,99637.09
2022-11-27T21:49:06.061Z,99618.31
2022-11-27T21:51:34.566Z,99566.81
2022-11-27T21:54:07.824Z,99525.44
2022-11-27T21:56:38.625Z,99473.81
2022-11-27T21:59:10.248Z,99431.03
2022-11-27T22:01:38.693Z,99391.28
2022-11-27T22:04:07.365Z,99368.75
2022-11-27T22:06:38.609Z,99328.94
2022-11-27T22:09:11.868Z,99312.88
2022-11-27T22:11:43.227Z,99300.88
2022-11-27T22:14:13.425Z,99299.69
2022-11-27T22:16:45.276Z,99293.44
2022-11-27T22:19:15.321Z,99283.59
2022-11-27T22:21:45.142Z,99258.47
2022-11-27T22:24:18.910Z,99245.59
2022-11-27T22:26:49.778Z,99208.16
2022-11-27T22:29:20.060Z,99199.47
2022-11-27T22:31:48.077Z,99189.31
2022-11-27T22:34:21.872Z,99177.38
2022-11-27T22:36:50.088Z,99170.53
2022-11-27T22:39:18.420Z,99164.50
2022-11-27T22:41:47.152Z,99156.91
2022-11-27T22:44:18.711Z,99142.22
2022-11-27T22:46:51.695Z,99137.47
2022-11-27T22:49:20.186Z,99127.06
2022-11-27T22:51:48.359Z,99140.91
2022-11-27T22:54:18.008Z,99134.50
2022-11-27T22:56:47.455Z,99130.72
2022-11-27T22:59:33.734Z,99115.19
2022-11-27T23:02:05.077Z,99095.88
2022-11-27T23:04:33.601Z,99100.19
2022-11-27T23:07:01.710Z,99096.34
2022-11-27T23:09:30.145Z,99081.66
2022-11-27T23:11:58.111Z,99086.91
2022-11-27T23:14:27.024Z,99087.78
2022-11-27T23:16:55.078Z,99087.03
2022-11-27T23:19:24.729Z,99082.19
2022-11-27T23:21:52.575Z,99066.72
2022-11-27T23:24:20.900Z,99055.81
2022-11-27T23:26:49.030Z,99047.34
2022-11-27T23:29:16.856Z,99041.53
2022-11-27T23:31:44.750Z,99027.09
2022-11-27T23:34:15.984Z,99011.88
2022-11-27T23:36:45.858Z,98986.31
2022-11-27T23:39:14.897Z,99014.97
2022-11-27T23:41:43.531Z,99001.81
2022-11-27T23:44:11.736Z,99001.56
2022-11-27T23:46:39.771Z,99001.78
2022-11-27T23:49:08.284Z,99025.06
2022-11-27T23:51:36.499Z,99048.97
2022-11-27T23:54:08.408Z,99045.53
2022-11-27T23:56:36.644Z,99063.44
2022-11-27T23:59:05.331Z,99058.63
